< Typhoon 196211 1962 Season Typhoon 196213 >
Typhoon 196212 (RUTH)
General InformationTrack Information on Google Maps || Disaster Info.ResourceGoogle EarthGE AnimationAtom FeedGeoJSON
Detalied Best Track (Time Zone = UTC)
Year Month Day Hour Lat. Long. Pressure (hPa) Wind (kt) Class Image Chart
1962 8 12 00 10.5 151.2 1010 0 2 -- Chart
1962 8 12 06 11.0 150.7 1008 0 2 -- Chart
1962 8 12 12 11.6 150.0 1008 0 2 -- Chart
1962 8 12 18 12.0 149.4 1006 0 2 -- Chart
1962 8 13 00 12.6 148.8 1006 0 2 -- Chart
1962 8 13 06 13.2 148.1 1006 0 2 -- Chart
1962 8 13 12 13.6 147.5 1005 0 2 -- Chart
1962 8 13 18 14.0 146.9 1004 0 2 -- Chart
1962 8 14 00 14.6 146.3 1004 0 9 -- Chart
1962 8 14 06 15.3 146.0 1000 0 9 -- Chart
1962 8 14 12 16.0 146.0 998 0 9 -- Chart
1962 8 14 18 16.7 146.0 995 0 9 -- Chart
1962 8 15 00 17.4 146.0 985 0 9 -- Chart
1962 8 15 06 18.3 146.0 978 0 9 -- Chart
1962 8 15 12 19.4 145.8 965 0 9 -- Chart
1962 8 15 18 20.5 145.8 950 0 9 -- Chart
1962 8 16 00 21.6 145.6 925 0 9 -- Chart
1962 8 16 06 22.4 145.2 915 0 9 -- Chart
1962 8 16 12 23.5 144.9 915 0 9 -- Chart
1962 8 16 18 24.6 144.7 915 0 9 -- Chart
1962 8 17 00 25.9 144.0 920 0 9 -- Chart
1962 8 17 06 27.2 143.4 925 0 9 -- Chart
1962 8 17 12 28.4 142.7 930 0 9 -- Chart
1962 8 17 18 29.6 141.9 940 0 9 -- Chart
1962 8 18 00 30.4 141.4 955 0 9 -- Chart
1962 8 18 06 30.9 141.0 955 0 9 -- Chart
1962 8 18 12 31.4 140.7 955 0 9 -- Chart
1962 8 18 18 31.8 140.7 960 0 9 -- Chart
1962 8 19 00 32.4 140.7 965 0 9 -- Chart
1962 8 19 06 32.8 140.6 965 0 9 -- Chart
1962 8 19 12 33.0 140.7 965 0 9 -- Chart
1962 8 19 18 33.3 140.8 965 0 9 -- Chart
1962 8 20 00 33.6 141.2 960 0 9 -- Chart
1962 8 20 06 34.3 141.7 960 0 9 -- Chart
1962 8 20 12 35.1 142.2 960 0 9 -- Chart
1962 8 20 18 35.9 143.0 960 0 9 -- Chart
1962 8 21 00 36.5 143.7 960 0 9 -- Chart
1962 8 21 06 37.2 144.6 960 0 9 -- Chart
1962 8 21 12 37.8 146.5 960 0 9 -- Chart
1962 8 21 18 38.5 148.5 960 0 9 -- Chart
1962 8 22 00 39.3 150.8 960 0 9 -- Chart
1962 8 22 06 40.0 152.9 960 0 9 -- Chart
1962 8 22 12 40.7 156.6 965 0 9 -- Chart
1962 8 22 18 41.0 160.9 970 0 9 -- Chart
1962 8 23 00 40.9 164.2 975 0 9 -- Chart
1962 8 23 06 41.3 168.0 984 0 6 -- Chart
1962 8 23 12 42.3 171.2 990 0 6 -- Chart
1962 8 23 18 43.8 174.0 990 0 6 -- Chart
1962 8 24 00 45.0 177.0 992 0 6 -- Chart
1962 8 24 06 46.3 178.6 994 0 6 -- Chart
1962 8 24 12 49.0 179.0 994 0 6 -- Chart
1962 8 24 18 50.0 179.0 994 0 6 -- Chart
1962 8 25 00 54.0 178.0 986 0 6 -- Chart
1962 8 25 06 55.0 180.0 986 0 6 -- Chart
1962 8 25 12 56.0 180.0 986 0 6 -- Chart
1962 8 25 18 57.8 184.0 986 0 6 -- Chart
Japan Meteorological Agency Best Track Data | Correction Date : 1989-06-01
< Typhoon 196211 1962 Season Typhoon 196213 >

Help